Time;durP1;ratioP1;P1;durP2;ratioP2;P2;SDS_P1;SDS_P2;PMS_P1;PMS_P2;Temp;Humidity;BMP_temperature;BMP_pressure;BME280_temperature;BME280_humidity;BME280_pressure;Samples;Min_cycle;Max_cycle;Signal;HPM_P1;HPM_P2
2023/07/23 00:00:14;;;;;;;4.65;2.65;;;;;;;29.32;55.18;99385.44;5044822;28;20025;-83
2023/07/23 00:02:40;;;;;;;5.22;4.13;;;;;;;29.05;55.67;99359.06;5044612;28;20105;-83
2023/07/23 00:05:06;;;;;;;6.28;4.28;;;;;;;28.82;55.45;99367.59;5045341;28;20033;-83
2023/07/23 00:07:32;;;;;;;7.25;3.10;;;;;;;28.79;54.99;99343.47;5043630;28;20037;-83
2023/07/23 00:09:57;;;;;;;6.88;2.95;;;;;;;28.82;54.66;99334.19;5045510;28;20387;-85
2023/07/23 00:12:23;;;;;;;17.30;4.45;;;;;;;29.12;54.17;99371.06;5040060;28;20091;-86
2023/07/23 00:14:48;;;;;;;3.17;2.05;;;;;;;29.14;53.99;99390.75;5045943;28;20041;-83
2023/07/23 00:17:13;;;;;;;7.97;4.22;;;;;;;28.87;53.96;99361.72;5051852;28;20491;-84
2023/07/23 00:19:39;;;;;;;4.38;3.38;;;;;;;29.01;53.93;99390.22;5041371;28;20032;-84
2023/07/23 00:22:06;;;;;;;11.18;2.85;;;;;;;28.67;54.83;99382.63;5044318;28;20120;-85
2023/07/23 00:24:31;;;;;;;4.03;2.08;;;;;;;28.72;54.66;99367.63;5041920;28;20029;-85
2023/07/23 00:26:56;;;;;;;11.30;3.50;;;;;;;28.93;54.00;99391.84;5056107;28;20032;-84
2023/07/23 00:29:22;;;;;;;7.30;3.38;;;;;;;28.83;53.76;99399.16;5043252;28;20037;-86
2023/07/23 00:31:47;;;;;;;5.30;2.50;;;;;;;28.93;53.79;99428.97;5048494;28;20040;-84
2023/07/23 00:34:13;;;;;;;10.90;3.42;;;;;;;28.86;53.14;99392.59;5048344;28;20031;-84
2023/07/23 00:36:39;;;;;;;7.53;2.40;;;;;;;28.80;53.00;99396.75;5049949;28;20545;-83
2023/07/23 00:39:05;;;;;;;3.67;1.90;;;;;;;28.88;53.24;99420.44;5049288;28;20033;-83
2023/07/23 00:41:31;;;;;;;7.72;3.08;;;;;;;28.96;52.88;99415.09;5049857;28;20087;-84
2023/07/23 00:43:56;;;;;;;8.40;3.83;;;;;;;28.92;52.92;99411.84;5049810;28;20031;-83
2023/07/23 00:46:23;;;;;;;2.67;2.10;;;;;;;29.04;53.44;99439.69;5050205;28;20044;-84
2023/07/23 00:48:48;;;;;;;5.32;3.17;;;;;;;28.75;53.43;99396.34;5049070;28;20033;-84
2023/07/23 00:51:15;;;;;;;6.95;2.53;;;;;;;28.83;53.59;99422.75;5049686;28;20426;-85
2023/07/23 00:53:41;;;;;;;4.07;2.58;;;;;;;28.82;53.46;99430.00;5049917;28;20033;-85
2023/07/23 00:56:07;;;;;;;5.35;2.42;;;;;;;28.70;53.51;99433.88;5049665;28;20040;-85
2023/07/23 00:58:32;;;;;;;8.52;3.40;;;;;;;28.63;54.02;99454.50;5049357;28;20029;-84
2023/07/23 01:00:58;;;;;;;3.97;2.58;;;;;;;28.35;54.51;99417.22;5049280;28;20040;-85
2023/07/23 01:03:23;;;;;;;7.63;3.65;;;;;;;28.43;54.79;99435.47;5049572;28;20036;-85
2023/07/23 01:05:50;;;;;;;8.93;2.67;;;;;;;28.42;55.04;99443.75;5049390;28;20020;-84
2023/07/23 01:08:16;;;;;;;2.95;2.13;;;;;;;28.01;56.55;99439.34;5049676;28;20829;-84
2023/07/23 01:10:42;;;;;;;6.93;2.72;;;;;;;28.09;56.25;99444.03;5049337;28;20078;-84
2023/07/23 01:13:08;;;;;;;6.95;4.40;;;;;;;28.23;56.53;99478.84;5049820;28;20116;-84
2023/07/23 01:15:34;;;;;;;5.15;3.25;;;;;;;28.03;57.42;99491.53;5049265;28;20439;-85
2023/07/23 01:18:03;;;;;;;6.18;3.10;;;;;;;27.51;58.04;99433.91;5049393;28;20032;-84
2023/07/23 01:20:29;;;;;;;5.68;4.00;;;;;;;27.88;57.70;99484.78;5049453;28;20186;-85
2023/07/23 01:22:54;;;;;;;5.93;3.08;;;;;;;27.83;57.50;99476.22;5048543;28;20033;-84
2023/07/23 01:25:20;;;;;;;5.85;3.67;;;;;;;27.84;57.78;99469.81;5049619;28;20506;-84
2023/07/23 01:27:45;;;;;;;5.35;3.35;;;;;;;27.86;56.84;99457.81;5049341;28;20130;-85
2023/07/23 01:30:12;;;;;;;5.28;3.17;;;;;;;27.77;57.09;99446.97;5064940;28;20094;-84
2023/07/23 01:32:39;;;;;;;12.38;3.92;;;;;;;27.66;57.57;99467.75;5049155;28;20040;-84
2023/07/23 01:35:13;;;;;;;3.75;2.13;;;;;;;27.43;58.17;99458.97;5049066;28;20181;-84
2023/07/23 01:37:39;;;;;;;5.63;3.67;;;;;;;27.23;58.50;99458.00;5049354;28;20407;-85
2023/07/23 01:40:06;;;;;;;7.80;4.72;;;;;;;27.10;59.10;99462.81;5049475;28;20029;-85
2023/07/23 01:42:32;;;;;;;5.40;3.55;;;;;;;27.17;59.50;99499.16;5048890;28;20094;-84
2023/07/23 01:45:02;;;;;;;4.93;2.47;;;;;;;26.97;59.27;99458.47;5048707;28;20029;-84
2023/07/23 01:47:28;;;;;;;6.22;3.45;;;;;;;26.90;59.78;99472.66;5051351;28;20025;-85
2023/07/23 01:49:53;;;;;;;5.68;2.03;;;;;;;26.92;59.68;99466.09;5052911;28;20032;-86
2023/07/23 01:52:19;;;;;;;9.60;3.80;;;;;;;26.75;59.73;99455.91;5053125;28;20021;-85
2023/07/23 01:54:44;;;;;;;2.45;2.17;;;;;;;26.64;59.95;99456.78;5052510;28;20028;-85
2023/07/23 01:57:10;;;;;;;7.30;3.50;;;;;;;26.96;59.24;99482.97;5052497;28;20028;-84
2023/07/23 01:59:35;;;;;;;4.88;3.03;;;;;;;27.04;59.61;99504.78;5052099;28;20033;-85
2023/07/23 02:02:04;;;;;;;5.45;2.03;;;;;;;26.86;59.87;99471.22;5052487;28;20037;-84
2023/07/23 02:04:31;;;;;;;4.38;2.42;;;;;;;26.86;59.19;99487.44;5052058;28;20086;-85
2023/07/23 02:06:56;;;;;;;9.02;2.70;;;;;;;26.56;60.29;99476.38;5052826;28;20537;-85
2023/07/23 02:09:22;;;;;;;13.35;3.75;;;;;;;26.55;60.49;99501.69;5052108;28;20033;-86
2023/07/23 02:11:47;;;;;;;11.10;3.20;;;;;;;26.69;60.41;99516.78;5070504;28;20023;-85
2023/07/23 02:14:13;;;;;;;11.80;3.33;;;;;;;26.49;60.61;99501.38;5094128;28;20025;-86
2023/07/23 02:16:38;;;;;;;4.90;2.58;;;;;;;26.48;60.64;99496.94;5078598;28;20023;-87
2023/07/23 02:19:04;;;;;;;8.55;2.65;;;;;;;26.43;59.89;99473.00;5078069;28;20021;-85
2023/07/23 02:21:29;;;;;;;8.52;2.40;;;;;;;26.57;59.64;99488.03;5078719;28;20021;-86
2023/07/23 02:23:55;;;;;;;6.07;2.80;;;;;;;26.70;59.40;99499.59;5078324;28;20037;-86
2023/07/23 02:26:20;;;;;;;3.60;2.00;;;;;;;26.85;59.41;99515.47;5077642;28;20097;-86
2023/07/23 02:28:46;;;;;;;4.30;2.88;;;;;;;26.63;58.98;99472.19;5078524;28;20021;-85
2023/07/23 02:31:12;;;;;;;4.22;2.20;;;;;;;26.81;59.15;99509.47;5077371;28;20043;-85
2023/07/23 02:33:37;;;;;;;4.70;3.72;;;;;;;26.88;58.52;99498.97;5078305;28;20033;-87
2023/07/23 02:36:03;;;;;;;4.68;2.90;;;;;;;26.54;58.59;99453.16;5075802;28;20037;-87
2023/07/23 02:38:28;;;;;;;3.92;2.55;;;;;;;26.73;58.78;99479.53;5057281;28;20488;-84
2023/07/23 02:40:55;;;;;;;6.43;3.58;;;;;;;26.87;58.62;99508.97;5056244;28;20158;-85
2023/07/23 02:43:21;;;;;;;6.13;2.90;;;;;;;26.97;58.36;99503.59;5055272;28;20106;-85
2023/07/23 02:45:46;;;;;;;10.07;2.38;;;;;;;26.98;58.17;99508.88;5054921;28;20116;-85
2023/07/23 02:48:12;;;;;;;6.40;2.88;;;;;;;27.01;58.08;99506.91;5054620;28;20036;-85
2023/07/23 02:50:39;;;;;;;5.53;3.13;;;;;;;27.24;58.19;99531.97;5055498;28;20025;-86
2023/07/23 02:53:05;;;;;;;7.53;3.80;;;;;;;27.21;58.37;99522.28;5056208;28;20057;-86
2023/07/23 02:55:33;;;;;;;11.50;3.03;;;;;;;27.31;57.64;99531.34;5055324;28;20029;-86
2023/07/23 02:58:00;;;;;;;6.55;3.05;;;;;;;27.27;58.00;99535.28;5054214;28;20044;-85
2023/07/23 03:00:28;;;;;;;6.45;3.45;;;;;;;27.17;57.64;99520.81;5054674;28;20028;-86
2023/07/23 03:02:54;;;;;;;9.40;3.58;;;;;;;27.07;58.55;99528.03;5055295;28;20033;-85
2023/07/23 03:05:20;;;;;;;8.15;2.42;;;;;;;26.92;58.32;99520.22;5054002;28;20474;-85
2023/07/23 03:07:46;;;;;;;8.13;2.40;;;;;;;27.07;58.02;99530.75;5055066;28;20115;-86
2023/07/23 03:10:12;;;;;;;2.88;2.17;;;;;;;27.09;58.15;99564.78;5056976;28;20070;-87
2023/07/23 03:12:41;;;;;;;5.60;3.28;;;;;;;27.13;58.06;99565.41;5055120;28;20033;-88
2023/07/23 03:15:07;;;;;;;4.55;3.15;;;;;;;26.49;58.70;99507.63;5051642;28;20044;-86
2023/07/23 03:17:32;;;;;;;3.40;1.95;;;;;;;26.78;59.05;99544.91;5067006;28;20083;-85
2023/07/23 03:19:58;;;;;;;7.78;3.58;;;;;;;26.71;60.07;99550.00;5051410;28;20055;-87
2023/07/23 03:22:24;;;;;;;5.05;3.33;;;;;;;26.75;59.50;99553.28;5051548;28;20033;-85
2023/07/23 03:24:50;;;;;;;3.55;2.05;;;;;;;26.81;59.14;99544.66;5051039;28;20025;-89
2023/07/23 03:27:16;;;;;;;11.02;2.92;;;;;;;26.55;59.25;99504.41;5051951;28;20027;-96
2023/07/23 03:29:42;;;;;;;15.13;3.20;;;;;;;26.75;58.96;99548.72;5036039;28;20044;-94
2023/07/23 03:32:08;;;;;;;5.03;2.10;;;;;;;26.80;59.42;99560.03;5049315;28;20504;-89
2023/07/23 03:34:33;;;;;;;8.85;2.75;;;;;;;26.82;59.50;99559.91;5050676;28;20037;-89
2023/07/23 03:36:59;;;;;;;4.45;2.78;;;;;;;26.90;59.69;99583.63;5050853;28;20032;-92
2023/07/23 03:39:25;;;;;;;4.78;2.92;;;;;;;26.29;60.27;99519.28;5051863;28;20036;-89
2023/07/23 03:41:50;;;;;;;4.45;2.33;;;;;;;26.40;60.74;99560.66;5050728;28;20112;-93
2023/07/23 03:44:16;;;;;;;2.72;1.90;;;;;;;26.69;61.42;99600.66;5050048;28;20037;-92
2023/07/23 03:47:04;;;;;;;2.88;2.13;;;;;;;26.84;61.48;99605.78;5044073;28;20064;-85
2023/07/23 03:49:30;;;;;;;5.25;2.55;;;;;;;26.88;61.83;99609.91;5050473;28;20057;-87
2023/07/23 03:51:56;;;;;;;4.65;3.10;;;;;;;26.69;62.19;99618.75;5049951;28;20060;-85
2023/07/23 03:54:22;;;;;;;14.85;3.03;;;;;;;26.78;61.72;99610.69;5051144;28;20114;-87
2023/07/23 03:56:47;;;;;;;5.35;2.22;;;;;;;26.86;61.39;99615.47;5050927;28;20072;-86
2023/07/23 03:59:13;;;;;;;8.20;3.50;;;;;;;26.66;61.77;99567.59;5050508;28;20064;-87
2023/07/23 04:01:38;;;;;;;5.95;3.10;;;;;;;26.93;61.80;99613.97;5050315;28;20549;-86
2023/07/23 04:04:04;;;;;;;4.07;3.10;;;;;;;27.22;61.22;99626.88;5050448;28;20047;-86
2023/07/23 04:06:29;;;;;;;5.13;3.13;;;;;;;27.05;60.96;99582.31;5049950;28;20111;-86
2023/07/23 04:08:55;;;;;;;3.63;2.05;;;;;;;27.27;61.10;99650.84;5050669;28;20036;-85
2023/07/23 04:11:20;;;;;;;4.95;2.92;;;;;;;27.35;60.75;99637.53;5045919;28;20033;-85
2023/07/23 04:13:48;;;;;;;7.53;4.03;;;;;;;27.43;60.53;99632.31;5048609;28;20037;-85
2023/07/23 04:16:13;;;;;;;5.68;2.05;;;;;;;27.44;60.72;99633.19;5049953;28;20069;-85
2023/07/23 04:18:51;;;;;;;7.30;2.53;;;;;;;27.81;60.28;99659.78;5050056;28;20462;-85
2023/07/23 04:21:23;;;;;;;6.35;2.50;;;;;;;27.81;59.67;99651.66;5050508;28;20032;-84
2023/07/23 04:23:51;;;;;;;4.00;2.33;;;;;;;27.87;59.48;99665.50;5049241;28;20033;-84
2023/07/23 04:26:17;;;;;;;16.23;3.42;;;;;;;27.83;59.17;99661.34;5050120;28;20035;-85
2023/07/23 04:28:44;;;;;;;9.07;2.63;;;;;;;27.98;59.77;99661.88;5049698;28;20048;-85
2023/07/23 04:31:10;;;;;;;6.53;2.53;;;;;;;27.96;59.37;99654.88;5064634;28;20037;-85
2023/07/23 04:33:36;;;;;;;2.38;1.92;;;;;;;28.12;58.99;99657.94;5050091;28;20037;-85
2023/07/23 04:36:06;;;;;;;3.03;2.20;;;;;;;27.94;59.34;99627.00;5065642;28;20521;-85
2023/07/23 04:38:32;;;;;;;3.95;2.20;;;;;;;28.26;59.82;99664.00;5049882;28;20029;-84
2023/07/23 04:40:57;;;;;;;4.43;3.13;;;;;;;28.40;59.30;99648.16;5049626;28;20223;-84
2023/07/23 04:43:23;;;;;;;9.52;4.07;;;;;;;28.65;58.31;99675.81;5049441;28;20044;-84
2023/07/23 04:45:48;;;;;;;5.70;3.47;;;;;;;28.35;56.77;99612.47;5049665;28;20130;-86
2023/07/23 04:48:16;;;;;;;6.80;2.53;;;;;;;28.61;56.67;99663.56;5049478;28;20025;-84
2023/07/23 04:50:41;;;;;;;3.33;2.40;;;;;;;28.69;55.86;99646.56;5049969;28;20056;-84
2023/07/23 04:53:07;;;;;;;11.93;3.28;;;;;;;28.75;55.19;99641.41;5049932;28;20110;-86
2023/07/23 04:55:33;;;;;;;15.20;3.28;;;;;;;28.89;54.67;99642.84;5049595;28;20479;-83
2023/07/23 04:57:58;;;;;;;7.55;3.47;;;;;;;29.13;54.62;99671.44;5050040;28;20071;-83
2023/07/23 05:00:24;;;;;;;5.60;2.65;;;;;;;29.07;53.69;99634.00;5049398;28;20541;-84
2023/07/23 05:02:49;;;;;;;5.75;2.40;;;;;;;28.98;53.84;99629.41;5049403;28;20036;-85
2023/07/23 05:05:15;;;;;;;38.95;6.03;;;;;;;29.42;53.63;99674.16;5049726;28;20036;-84
2023/07/23 05:07:40;;;;;;;7.30;2.03;;;;;;;29.61;52.80;99669.69;5049886;28;20061;-85
2023/07/23 05:10:06;;;;;;;6.95;2.20;;;;;;;29.70;52.65;99676.97;5049257;28;20051;-84
2023/07/23 05:12:32;;;;;;;6.70;2.58;;;;;;;29.60;54.20;99668.00;5050131;28;20036;-83
2023/07/23 05:15:10;;;;;;;7.85;4.22;;;;;;;29.97;53.40;99678.94;5048836;28;20524;-84
2023/07/23 05:17:35;;;;;;;7.30;2.78;;;;;;;29.75;50.81;99647.50;5049861;28;20043;-85
2023/07/23 05:20:01;;;;;;;6.70;3.03;;;;;;;29.92;49.05;99655.91;5048548;28;20111;-86
2023/07/23 05:22:27;;;;;;;2.55;1.65;;;;;;;29.48;49.83;99621.13;5052065;28;20445;-84
2023/07/23 05:24:52;;;;;;;5.20;2.78;;;;;;;29.41;49.44;99658.00;5053175;28;20047;-85
2023/07/23 05:27:18;;;;;;;3.42;1.67;;;;;;;29.69;49.74;99658.97;5053706;28;20372;-85
2023/07/23 05:29:43;;;;;;;4.80;2.53;;;;;;;29.96;48.73;99660.91;5054197;28;20025;-86
2023/07/23 05:32:09;;;;;;;7.60;2.88;;;;;;;29.79;47.70;99640.75;5049286;28;20025;-85
2023/07/23 05:34:34;;;;;;;5.30;3.67;;;;;;;29.89;47.63;99667.06;5033877;28;20038;-86
2023/07/23 05:37:00;;;;;;;3.53;1.98;;;;;;;29.76;47.75;99649.19;5053007;28;20060;-86
2023/07/23 05:39:25;;;;;;;4.50;2.75;;;;;;;29.86;45.91;99646.50;5048882;28;20039;-87
2023/07/23 05:41:51;;;;;;;4.35;1.83;;;;;;;29.95;46.56;99637.47;5052091;28;20036;-88
2023/07/23 05:44:17;;;;;;;12.85;2.78;;;;;;;30.49;45.95;99675.72;5053319;28;20463;-87
2023/07/23 05:46:43;;;;;;;5.57;2.28;;;;;;;30.45;45.29;99684.34;5052812;28;20487;-87
2023/07/23 05:49:08;;;;;;;6.28;2.83;;;;;;;30.83;45.21;99679.66;5052881;28;20043;-85
2023/07/23 05:51:34;;;;;;;3.50;2.28;;;;;;;30.86;45.26;99657.56;5053353;28;20465;-86
2023/07/23 05:53:59;;;;;;;19.63;4.03;;;;;;;30.74;44.96;99681.44;5052453;28;20025;-87
2023/07/23 05:56:25;;;;;;;4.55;1.77;;;;;;;30.92;45.19;99646.06;5053045;28;20049;-85
2023/07/23 05:58:50;;;;;;;15.32;1.80;;;;;;;30.95;44.70;99647.63;5052825;28;20392;-85
2023/07/23 06:01:16;;;;;;;3.33;2.03;;;;;;;31.15;45.17;99640.16;5051546;28;20048;-84
2023/07/23 06:03:41;;;;;;;9.32;2.35;;;;;;;31.12;44.90;99637.75;5052674;28;20032;-84
2023/07/23 06:06:06;;;;;;;3.05;1.95;;;;;;;31.34;45.33;99641.84;5052765;28;20083;-84
2023/07/23 06:08:32;;;;;;;6.05;3.65;;;;;;;31.13;44.74;99618.53;5052391;28;20506;-84
2023/07/23 06:10:57;;;;;;;3.08;1.55;;;;;;;31.77;43.32;99661.94;5067490;28;20071;-84
2023/07/23 06:13:23;;;;;;;4.18;1.67;;;;;;;31.64;43.59;99618.75;5052439;28;20047;-84
2023/07/23 06:15:48;;;;;;;4.47;2.40;;;;;;;31.80;43.51;99628.91;5052808;28;20051;-85
2023/07/23 06:18:14;;;;;;;6.88;2.25;;;;;;;31.86;43.63;99609.16;5050783;28;20075;-87
2023/07/23 06:20:39;;;;;;;12.38;1.70;;;;;;;31.70;43.71;99619.97;5051118;28;20024;-85
2023/07/23 06:23:05;;;;;;;4.05;1.63;;;;;;;31.98;42.67;99639.75;5050404;28;20376;-84
2023/07/23 06:25:30;;;;;;;3.03;1.67;;;;;;;31.75;43.11;99599.38;5049000;28;20028;-89
2023/07/23 06:27:55;;;;;;;4.68;2.13;;;;;;;32.10;43.16;99605.72;5051743;28;20041;-90
2023/07/23 06:30:21;;;;;;;1.80;1.52;;;;;;;31.93;43.78;99612.06;5052395;28;20036;-88
2023/07/23 06:32:46;;;;;;;5.95;2.30;;;;;;;31.84;43.17;99603.03;5052238;28;20461;-89
2023/07/23 06:35:12;;;;;;;4.15;2.28;;;;;;;31.93;43.54;99617.53;5052224;28;20033;-88
2023/07/23 06:37:40;;;;;;;5.05;1.80;;;;;;;31.88;42.69;99607.13;5052256;28;20036;-88
2023/07/23 06:40:07;;;;;;;3.53;2.22;;;;;;;32.38;41.77;99631.91;5052097;28;20029;-87
2023/07/23 06:42:32;;;;;;;4.65;1.73;;;;;;;32.32;41.46;99619.78;5051628;28;20499;-87
2023/07/23 06:44:58;;;;;;;4.35;1.67;;;;;;;32.48;41.62;99644.38;5052189;28;20025;-87
2023/07/23 06:47:23;;;;;;;6.90;3.38;;;;;;;32.43;41.94;99604.97;5048740;28;20028;-87
2023/07/23 06:49:48;;;;;;;4.93;2.38;;;;;;;32.55;42.67;99609.09;5051924;28;20035;-88
2023/07/23 06:52:14;;;;;;;2.40;1.38;;;;;;;32.73;40.91;99632.72;5051579;28;20119;-88
2023/07/23 06:54:42;;;;;;;5.03;2.90;;;;;;;32.95;42.62;99623.88;5051422;28;20522;-88
2023/07/23 06:57:10;;;;;;;10.25;2.53;;;;;;;33.57;40.81;99624.34;5045013;28;20079;-92
2023/07/23 06:59:39;;;;;;;3.70;2.00;;;;;;;33.51;40.47;99604.06;5052489;28;20029;-91
2023/07/23 07:02:05;;;;;;;3.35;2.22;;;;;;;33.76;40.41;99612.22;5037579;28;20508;-91
2023/07/23 07:04:31;;;;;;;5.78;2.25;;;;;;;33.55;39.88;99586.25;5052010;28;20025;-92
2023/07/23 07:06:59;;;;;;;5.18;2.40;;;;;;;33.96;39.46;99649.09;5052267;28;20483;-92
2023/07/23 07:09:25;;;;;;;4.00;2.20;;;;;;;33.96;38.36;99616.25;5045645;28;20029;-94
2023/07/23 07:11:51;;;;;;;10.00;2.80;;;;;;;33.87;39.82;99589.97;5037312;28;20109;-92
2023/07/23 07:14:16;;;;;;;3.95;1.55;;;;;;;34.39;38.47;99624.16;5051513;28;20028;-89
2023/07/23 07:16:42;;;;;;;3.72;2.28;;;;;;;34.16;37.61;99635.00;5058625;28;20041;-89
2023/07/23 07:19:07;;;;;;;11.65;2.58;;;;;;;34.70;38.07;99637.81;5054854;28;20029;-86
2023/07/23 07:21:33;;;;;;;3.25;1.60;;;;;;;34.62;35.51;99613.22;5050551;28;20029;-89
2023/07/23 07:23:58;;;;;;;7.88;3.63;;;;;;;34.59;36.57;99617.16;5046846;28;20487;-88
2023/07/23 07:26:24;;;;;;;4.85;2.67;;;;;;;34.53;34.31;99597.88;5042212;28;20021;-89
2023/07/23 07:28:51;;;;;;;3.58;2.35;;;;;;;34.80;34.91;99626.66;5045065;28;20029;-89
2023/07/23 07:31:17;;;;;;;4.55;2.33;;;;;;;34.97;34.15;99638.34;5049015;28;20041;-87
2023/07/23 07:33:44;;;;;;;4.05;2.45;;;;;;;34.53;33.64;99568.59;5050360;28;20033;-88
2023/07/23 07:36:10;;;;;;;3.70;1.58;;;;;;;35.07;34.56;99617.03;5050320;28;20013;-89
2023/07/23 07:38:35;;;;;;;3.42;1.90;;;;;;;35.34;33.88;99606.53;5049373;28;20039;-88
2023/07/23 07:41:01;;;;;;;7.72;3.28;;;;;;;34.82;31.83;99591.72;5034356;28;20031;-87
2023/07/23 07:43:27;;;;;;;3.78;2.45;;;;;;;35.01;31.09;99630.63;5044540;28;20021;-87
2023/07/23 07:45:58;;;;;;;2.55;1.55;;;;;;;34.88;31.37;99623.88;5063970;28;20033;-84
2023/07/23 07:48:23;;;;;;;4.00;1.73;;;;;;;34.77;31.09;99596.88;5050837;28;20028;-90
2023/07/23 07:51:09;;;;;;;3.13;1.48;;;;;;;34.61;30.36;99584.13;5049137;28;20487;-89
2023/07/23 07:53:36;;;;;;;4.57;2.45;;;;;;;35.20;30.83;99618.28;5050305;28;20033;-89
2023/07/23 07:56:02;;;;;;;4.22;2.35;;;;;;;35.05;30.41;99579.88;5050632;28;20174;-88
2023/07/23 07:58:29;;;;;;;4.47;1.33;;;;;;;34.89;31.21;99608.28;5051188;28;20099;-88
2023/07/23 08:00:55;;;;;;;2.83;1.70;;;;;;;35.01;30.54;99590.34;5049206;28;20489;-88
2023/07/23 08:03:26;;;;;;;2.58;1.52;;;;;;;35.19;30.52;99586.44;5050453;28;20484;-88
2023/07/23 08:05:53;;;;;;;1.80;1.48;;;;;;;35.13;30.49;99588.88;5046003;28;20107;-89
2023/07/23 08:08:26;;;;;;;5.13;2.28;;;;;;;35.34;30.74;99617.50;5050138;28;20484;-88
2023/07/23 08:10:56;;;;;;;3.40;1.92;;;;;;;34.89;28.43;99578.97;5049721;28;20064;-89
2023/07/23 08:13:23;;;;;;;2.67;1.77;;;;;;;35.06;29.80;99623.53;5050225;28;20048;-87
2023/07/23 08:15:48;;;;;;;3.65;1.75;;;;;;;35.49;28.65;99604.66;5048799;28;20048;-90
2023/07/23 08:18:15;;;;;;;8.18;3.65;;;;;;;35.75;30.23;99594.28;5047369;28;20036;-88
2023/07/23 08:20:41;;;;;;;2.88;1.13;;;;;;;35.83;28.78;99595.06;5046163;28;20021;-89
2023/07/23 08:23:06;;;;;;;2.28;1.40;;;;;;;36.00;28.12;99594.88;5050218;28;20086;-88
2023/07/23 08:25:34;;;;;;;2.92;1.70;;;;;;;35.95;27.83;99625.63;5050365;28;20104;-91
2023/07/23 08:28:00;;;;;;;3.53;1.70;;;;;;;35.81;27.52;99626.50;5050263;28;20029;-88
2023/07/23 08:30:28;;;;;;;2.45;1.48;;;;;;;35.65;28.59;99598.19;5050101;28;20127;-90
2023/07/23 08:32:58;;;;;;;2.72;1.77;;;;;;;35.67;27.72;99600.72;5049849;28;20083;-90
2023/07/23 08:35:24;;;;;;;2.80;1.50;;;;;;;35.82;28.89;99582.41;5050419;28;20035;-89
2023/07/23 08:37:54;;;;;;;9.18;2.05;;;;;;;35.63;25.36;99561.00;5050737;28;20055;-93
2023/07/23 08:40:21;;;;;;;4.13;1.52;;;;;;;35.75;25.46;99577.84;5049529;28;20120;-92
2023/07/23 08:42:55;;;;;;;10.88;4.78;;;;;;;35.54;25.31;99604.09;5050298;28;20032;-90
2023/07/23 08:46:16;;;;;;;3.50;1.92;;;;;;;35.94;26.39;99606.63;5050371;28;20066;-96
2023/07/23 08:49:09;;;;;;;5.63;1.52;;;;;;;36.23;25.38;99615.88;5025863;28;20083;-89
2023/07/23 08:51:45;;;;;;;1.90;1.60;;;;;;;36.16;25.27;99622.13;5023818;28;20049;-93
2023/07/23 08:54:19;;;;;;;2.42;1.55;;;;;;;36.34;24.54;99618.97;5028047;28;20048;-95
2023/07/23 08:56:45;;;;;;;4.70;3.20;;;;;;;36.35;25.18;99564.94;5010905;28;20065;-87
2023/07/23 08:59:12;;;;;;;3.65;2.30;;;;;;;36.26;23.11;99599.88;5026917;28;20503;-90
2023/07/23 09:01:40;;;;;;;4.65;1.85;;;;;;;36.07;24.83;99590.34;5028205;28;20040;-91
2023/07/23 09:04:08;;;;;;;5.38;1.35;;;;;;;36.65;25.63;99617.00;5024888;28;20061;-91
2023/07/23 09:06:34;;;;;;;5.82;2.10;;;;;;;36.32;24.25;99607.34;4994215;28;20037;-89
2023/07/23 09:09:11;;;;;;;2.67;1.95;;;;;;;36.41;22.71;99632.81;5027064;28;20048;-92
2023/07/23 09:11:42;;;;;;;2.38;1.45;;;;;;;35.78;21.71;99564.63;5007338;28;20042;-91
2023/07/23 09:14:13;;;;;;;13.70;2.70;;;;;;;35.71;23.19;99585.56;5014297;28;20037;-91
2023/07/23 09:16:40;;;;;;;7.30;1.42;;;;;;;36.18;23.00;99609.03;5026994;28;20045;-86
2023/07/23 09:19:09;;;;;;;4.97;2.17;;;;;;;36.01;22.43;99596.59;5026618;28;20067;-86
2023/07/23 09:21:35;;;;;;;4.30;2.08;;;;;;;35.99;23.20;99583.06;5026600;28;20037;-86
2023/07/23 09:24:06;;;;;;;3.40;2.00;;;;;;;36.33;23.27;99620.03;5035662;28;20087;-84
2023/07/23 09:26:32;;;;;;;6.28;2.72;;;;;;;36.40;22.79;99608.28;5049166;28;20391;-85
2023/07/23 09:28:59;;;;;;;6.22;2.72;;;;;;;36.68;23.17;99600.13;5047747;28;20071;-87
2023/07/23 09:31:28;;;;;;;8.10;2.25;;;;;;;36.50;22.04;99611.56;5046807;28;20021;-89
2023/07/23 09:33:59;;;;;;;5.25;2.08;;;;;;;36.63;24.83;99587.00;5047523;28;20341;-87
2023/07/23 09:36:25;;;;;;;3.92;1.73;;;;;;;36.71;22.39;99603.34;5048668;28;20029;-88
2023/07/23 09:39:04;;;;;;;3.38;2.17;;;;;;;36.61;23.98;99604.69;5048786;28;20025;-86
2023/07/23 09:41:41;;;;;;;4.15;2.45;;;;;;;36.66;23.47;99583.00;5048566;28;20025;-88
2023/07/23 09:44:08;;;;;;;4.70;2.55;;;;;;;36.66;22.54;99580.25;5049284;28;20060;-87
2023/07/23 09:46:36;;;;;;;11.93;2.55;;;;;;;36.62;22.36;99556.97;5047508;28;20514;-87
2023/07/23 09:49:01;;;;;;;4.78;2.15;;;;;;;36.80;23.34;99587.59;5048294;28;20028;-87
2023/07/23 09:51:27;;;;;;;5.95;2.22;;;;;;;36.46;22.80;99560.81;5030633;28;20567;-85
2023/07/23 09:53:53;;;;;;;5.32;2.03;;;;;;;36.53;22.77;99567.22;5063925;28;20038;-86
2023/07/23 09:56:20;;;;;;;4.82;3.05;;;;;;;36.50;23.65;99563.00;5048421;28;20025;-88
2023/07/23 09:58:48;;;;;;;4.50;2.40;;;;;;;37.03;23.09;99587.41;5048622;28;20566;-87
2023/07/23 10:01:16;;;;;;;5.55;3.25;;;;;;;36.69;21.58;99585.38;5048437;28;20025;-88
2023/07/23 10:03:43;;;;;;;7.82;3.35;;;;;;;36.85;22.62;99552.13;5028476;28;20033;-87
2023/07/23 10:06:11;;;;;;;4.70;1.85;;;;;;;36.95;21.47;99575.69;5031201;28;20466;-87
2023/07/23 10:08:42;;;;;;;5.85;3.03;;;;;;;36.81;21.35;99528.88;5050026;28;20059;-88
2023/07/23 10:11:11;;;;;;;3.72;2.58;;;;;;;37.15;21.05;99576.69;5051850;28;20039;-86
2023/07/23 10:13:38;;;;;;;4.65;2.70;;;;;;;37.42;21.86;99587.94;5052115;28;20029;-87
2023/07/23 10:16:26;;;;;;;4.35;3.05;;;;;;;37.38;19.00;99581.97;5046694;28;20080;-90
2023/07/23 10:18:54;;;;;;;7.60;3.55;;;;;;;37.31;19.53;99571.97;5031785;28;20035;-86
2023/07/23 10:21:21;;;;;;;4.32;3.00;;;;;;;36.94;20.32;99549.25;5047408;28;20017;-90
2023/07/23 10:23:58;;;;;;;3.25;1.90;;;;;;;36.96;19.70;99550.75;5050873;28;20029;-90
2023/07/23 10:26:25;;;;;;;3.15;2.38;;;;;;;36.98;19.75;99559.63;5049427;28;20028;-87
2023/07/23 10:29:11;;;;;;;5.97;2.78;;;;;;;36.82;19.52;99566.28;5048700;28;20155;-84
2023/07/23 10:31:38;;;;;;;6.63;2.47;;;;;;;36.77;20.71;99549.53;5035970;28;20029;-89
2023/07/23 10:34:22;;;;;;;3.25;2.15;;;;;;;37.22;20.60;99565.78;5050623;28;20511;-87
2023/07/23 10:37:21;;;;;;;5.45;2.58;;;;;;;37.18;20.70;99564.47;5040214;28;20044;-87
2023/07/23 10:39:49;;;;;;;7.47;1.92;;;;;;;37.19;20.21;99556.00;5038284;28;20040;-88
2023/07/23 10:42:41;;;;;;;4.30;3.08;;;;;;;36.92;20.21;99547.56;5051761;28;20029;-87
2023/07/23 10:45:26;;;;;;;5.85;2.55;;;;;;;36.93;20.45;99562.16;5046824;28;20029;-87
2023/07/23 10:47:53;;;;;;;3.70;1.85;;;;;;;37.08;20.81;99568.41;5050458;28;20052;-88
2023/07/23 10:50:20;;;;;;;5.78;3.63;;;;;;;36.74;21.21;99508.72;5050929;28;20040;-88
2023/07/23 10:52:48;;;;;;;6.22;3.67;;;;;;;36.85;20.93;99537.56;5050907;28;20029;-86
2023/07/23 10:55:32;;;;;;;14.80;2.95;;;;;;;37.28;20.61;99548.50;5044942;28;20052;-88
2023/07/23 10:58:14;;;;;;;4.88;2.95;;;;;;;37.23;20.13;99553.72;5041573;28;20116;-87
2023/07/23 11:00:54;;;;;;;5.72;3.20;;;;;;;37.21;19.47;99545.66;5049403;28;20415;-87
2023/07/23 11:03:21;;;;;;;6.15;3.72;;;;;;;36.91;19.22;99531.28;5065103;28;20557;-87
2023/07/23 11:05:47;;;;;;;8.05;3.78;;;;;;;36.59;18.97;99546.38;5051290;28;20048;-91
2023/07/23 11:08:15;;;;;;;9.57;3.67;;;;;;;36.55;19.09;99516.56;5049497;28;20017;-85
2023/07/23 11:10:52;;;;;;;7.90;2.58;;;;;;;36.87;20.14;99546.44;5047489;28;20039;-89
2023/07/23 11:13:20;;;;;;;24.98;4.20;;;;;;;37.00;19.28;99545.69;5044547;28;20086;-91
2023/07/23 11:15:47;;;;;;;6.68;3.17;;;;;;;36.70;18.99;99519.22;5049803;28;20056;-88
2023/07/23 11:18:13;;;;;;;6.07;3.17;;;;;;;36.89;19.51;99525.97;5030166;28;20035;-87
2023/07/23 11:20:47;;;;;;;8.70;3.85;;;;;;;36.92;19.02;99532.94;5040513;28;20102;-88
2023/07/23 11:23:13;;;;;;;7.70;2.53;;;;;;;36.95;18.85;99517.97;5047921;28;20235;-90
2023/07/23 11:25:39;;;;;;;8.20;3.80;;;;;;;36.79;19.37;99530.09;5050926;28;20040;-90
2023/07/23 11:28:07;;;;;;;8.85;4.30;;;;;;;36.80;18.73;99531.81;5049205;28;20438;-89
2023/07/23 11:30:33;;;;;;;6.53;3.47;;;;;;;36.80;19.43;99496.09;5050637;28;20484;-89
2023/07/23 11:32:59;;;;;;;5.63;3.22;;;;;;;37.20;19.54;99532.09;5050471;28;20119;-91